sensor_id;sensor_type;location;lat;lon;timestamp;P1;durP1;ratioP1;P2;durP2;ratioP2
10122;SDS011;5101;49.038;8.710;2022-12-07T00:00:48;8.83;;;7.57;;
10122;SDS011;5101;49.038;8.710;2022-12-07T00:03:14;9.57;;;7.70;;
10122;SDS011;5101;49.038;8.710;2022-12-07T00:05:39;8.73;;;7.83;;
10122;SDS011;5101;49.038;8.710;2022-12-07T00:08:05;10.83;;;7.33;;
10122;SDS011;5101;49.038;8.710;2022-12-07T00:10:32;7.90;;;7.10;;
10122;SDS011;5101;49.038;8.710;2022-12-07T00:12:58;8.67;;;7.77;;
10122;SDS011;5101;49.038;8.710;2022-12-07T00:15:24;9.27;;;7.47;;
10122;SDS011;5101;49.038;8.710;2022-12-07T00:17:49;9.37;;;7.53;;
10122;SDS011;5101;49.038;8.710;2022-12-07T00:20:15;8.60;;;7.33;;
10122;SDS011;5101;49.038;8.710;2022-12-07T00:22:41;9.07;;;7.57;;
10122;SDS011;5101;49.038;8.710;2022-12-07T00:25:06;9.97;;;8.30;;
10122;SDS011;5101;49.038;8.710;2022-12-07T00:27:32;8.67;;;6.87;;
10122;SDS011;5101;49.038;8.710;2022-12-07T00:29:57;9.23;;;7.77;;
10122;SDS011;5101;49.038;8.710;2022-12-07T00:32:23;8.80;;;7.83;;
10122;SDS011;5101;49.038;8.710;2022-12-07T00:34:48;9.00;;;8.03;;
10122;SDS011;5101;49.038;8.710;2022-12-07T00:37:13;10.40;;;8.10;;
10122;SDS011;5101;49.038;8.710;2022-12-07T00:39:39;9.20;;;7.67;;
10122;SDS011;5101;49.038;8.710;2022-12-07T00:42:05;10.50;;;7.93;;
10122;SDS011;5101;49.038;8.710;2022-12-07T00:44:30;9.13;;;7.80;;
10122;SDS011;5101;49.038;8.710;2022-12-07T00:46:55;9.53;;;8.20;;
10122;SDS011;5101;49.038;8.710;2022-12-07T00:49:21;9.03;;;7.73;;
10122;SDS011;5101;49.038;8.710;2022-12-07T00:51:49;10.47;;;8.33;;
10122;SDS011;5101;49.038;8.710;2022-12-07T00:54:15;8.97;;;8.07;;
10122;SDS011;5101;49.038;8.710;2022-12-07T00:56:40;9.40;;;7.97;;
10122;SDS011;5101;49.038;8.710;2022-12-07T00:59:06;9.13;;;7.80;;
10122;SDS011;5101;49.038;8.710;2022-12-07T01:01:33;9.03;;;7.97;;
10122;SDS011;5101;49.038;8.710;2022-12-07T01:04:01;8.37;;;6.93;;
10122;SDS011;5101;49.038;8.710;2022-12-07T01:06:27;9.43;;;7.63;;
10122;SDS011;5101;49.038;8.710;2022-12-07T01:08:53;9.20;;;8.23;;
10122;SDS011;5101;49.038;8.710;2022-12-07T01:11:24;11.90;;;8.40;;
10122;SDS011;5101;49.038;8.710;2022-12-07T01:13:52;9.43;;;8.03;;
10122;SDS011;5101;49.038;8.710;2022-12-07T01:16:19;11.43;;;7.80;;
10122;SDS011;5101;49.038;8.710;2022-12-07T01:18:47;10.20;;;8.00;;
10122;SDS011;5101;49.038;8.710;2022-12-07T01:23:47;10.40;;;8.47;;
10122;SDS011;5101;49.038;8.710;2022-12-07T01:26:14;8.63;;;7.73;;
10122;SDS011;5101;49.038;8.710;2022-12-07T01:28:42;11.07;;;8.93;;
10122;SDS011;5101;49.038;8.710;2022-12-07T01:31:09;10.47;;;8.33;;
10122;SDS011;5101;49.038;8.710;2022-12-07T01:33:37;8.97;;;8.00;;
10122;SDS011;5101;49.038;8.710;2022-12-07T01:38:37;11.40;;;8.07;;
10122;SDS011;5101;49.038;8.710;2022-12-07T01:41:03;9.33;;;8.23;;
10122;SDS011;5101;49.038;8.710;2022-12-07T01:43:29;12.37;;;8.47;;
10122;SDS011;5101;49.038;8.710;2022-12-07T01:45:56;10.70;;;8.90;;
10122;SDS011;5101;49.038;8.710;2022-12-07T01:48:32;10.63;;;8.20;;
10122;SDS011;5101;49.038;8.710;2022-12-07T01:51:08;10.53;;;9.07;;
10122;SDS011;5101;49.038;8.710;2022-12-07T01:53:36;10.10;;;8.70;;
10122;SDS011;5101;49.038;8.710;2022-12-07T01:56:05;9.90;;;8.37;;
10122;SDS011;5101;49.038;8.710;2022-12-07T01:58:33;12.37;;;8.67;;
10122;SDS011;5101;49.038;8.710;2022-12-07T02:00:59;9.67;;;7.87;;
10122;SDS011;5101;49.038;8.710;2022-12-07T02:03:27;10.10;;;7.70;;
10122;SDS011;5101;49.038;8.710;2022-12-07T02:05:58;8.03;;;7.23;;
10122;SDS011;5101;49.038;8.710;2022-12-07T02:08:25;8.07;;;7.27;;
10122;SDS011;5101;49.038;8.710;2022-12-07T02:10:50;7.97;;;7.17;;
10122;SDS011;5101;49.038;8.710;2022-12-07T02:13:16;7.97;;;6.97;;
10122;SDS011;5101;49.038;8.710;2022-12-07T02:18:51;7.63;;;6.73;;
10122;SDS011;5101;49.038;8.710;2022-12-07T02:21:39;8.77;;;6.67;;
10122;SDS011;5101;49.038;8.710;2022-12-07T02:27:34;8.73;;;6.53;;
10122;SDS011;5101;49.038;8.710;2022-12-07T02:30:20;7.30;;;6.60;;
10122;SDS011;5101;49.038;8.710;2022-12-07T02:33:07;8.97;;;6.63;;
10122;SDS011;5101;49.038;8.710;2022-12-07T02:35:49;7.30;;;6.60;;
10122;SDS011;5101;49.038;8.710;2022-12-07T02:38:28;7.50;;;6.80;;
10122;SDS011;5101;49.038;8.710;2022-12-07T02:41:22;9.17;;;6.57;;
10122;SDS011;5101;49.038;8.710;2022-12-07T02:43:53;11.47;;;7.17;;
10122;SDS011;5101;49.038;8.710;2022-12-07T02:46:23;8.83;;;6.67;;
10122;SDS011;5101;49.038;8.710;2022-12-07T02:49:11;8.73;;;7.50;;
10122;SDS011;5101;49.038;8.710;2022-12-07T02:51:43;10.17;;;8.13;;
10122;SDS011;5101;49.038;8.710;2022-12-07T02:54:12;10.37;;;8.17;;
10122;SDS011;5101;49.038;8.710;2022-12-07T03:10:07;12.27;;;8.13;;
10122;SDS011;5101;49.038;8.710;2022-12-07T03:13:11;9.87;;;8.60;;
10122;SDS011;5101;49.038;8.710;2022-12-07T03:15:43;10.70;;;8.47;;
10122;SDS011;5101;49.038;8.710;2022-12-07T03:18:15;10.13;;;8.00;;
10122;SDS011;5101;49.038;8.710;2022-12-07T03:20:43;10.10;;;8.37;;
10122;SDS011;5101;49.038;8.710;2022-12-07T03:23:10;10.03;;;7.90;;
10122;SDS011;5101;49.038;8.710;2022-12-07T03:25:40;12.40;;;8.17;;
10122;SDS011;5101;49.038;8.710;2022-12-07T03:28:10;8.90;;;7.23;;
10122;SDS011;5101;49.038;8.710;2022-12-07T03:30:44;10.30;;;7.50;;
10122;SDS011;5101;49.038;8.710;2022-12-07T03:33:13;9.17;;;7.33;;
10122;SDS011;5101;49.038;8.710;2022-12-07T03:38:44;7.77;;;6.90;;
10122;SDS011;5101;49.038;8.710;2022-12-07T03:41:18;8.13;;;6.97;;
10122;SDS011;5101;49.038;8.710;2022-12-07T03:43:51;9.93;;;7.67;;
10122;SDS011;5101;49.038;8.710;2022-12-07T03:51:51;9.20;;;7.27;;
10122;SDS011;5101;49.038;8.710;2022-12-07T03:54:32;11.97;;;6.90;;
10122;SDS011;5101;49.038;8.710;2022-12-07T03:57:02;8.70;;;7.40;;
10122;SDS011;5101;49.038;8.710;2022-12-07T03:59:30;9.80;;;7.17;;
10122;SDS011;5101;49.038;8.710;2022-12-07T04:01:56;7.73;;;6.57;;
10122;SDS011;5101;49.038;8.710;2022-12-07T04:04:26;8.53;;;7.40;;
10122;SDS011;5101;49.038;8.710;2022-12-07T04:06:52;7.80;;;6.90;;
10122;SDS011;5101;49.038;8.710;2022-12-07T04:09:17;8.73;;;7.40;;
10122;SDS011;5101;49.038;8.710;2022-12-07T04:11:43;8.60;;;6.77;;
10122;SDS011;5101;49.038;8.710;2022-12-07T04:14:09;7.83;;;7.03;;
10122;SDS011;5101;49.038;8.710;2022-12-07T04:16:44;9.03;;;6.83;;
10122;SDS011;5101;49.038;8.710;2022-12-07T04:19:14;8.60;;;7.17;;
10122;SDS011;5101;49.038;8.710;2022-12-07T04:21:40;11.50;;;7.83;;
10122;SDS011;5101;49.038;8.710;2022-12-07T04:24:06;9.10;;;7.53;;
10122;SDS011;5101;49.038;8.710;2022-12-07T04:26:32;9.40;;;7.47;;
10122;SDS011;5101;49.038;8.710;2022-12-07T04:28:57;10.00;;;7.47;;
10122;SDS011;5101;49.038;8.710;2022-12-07T04:31:23;8.40;;;6.90;;
10122;SDS011;5101;49.038;8.710;2022-12-07T04:33:48;10.23;;;7.77;;
10122;SDS011;5101;49.038;8.710;2022-12-07T04:36:14;9.53;;;7.23;;
10122;SDS011;5101;49.038;8.710;2022-12-07T04:38:39;8.77;;;7.23;;
10122;SDS011;5101;49.038;8.710;2022-12-07T04:41:08;9.23;;;7.17;;
10122;SDS011;5101;49.038;8.710;2022-12-07T04:43:34;10.20;;;8.20;;
10122;SDS011;5101;49.038;8.710;2022-12-07T04:46:00;10.77;;;7.73;;
10122;SDS011;5101;49.038;8.710;2022-12-07T04:48:26;9.90;;;7.47;;
10122;SDS011;5101;49.038;8.710;2022-12-07T04:50:51;9.83;;;7.87;;
10122;SDS011;5101;49.038;8.710;2022-12-07T04:53:17;12.90;;;9.60;;
10122;SDS011;5101;49.038;8.710;2022-12-07T04:55:43;10.17;;;8.43;;
10122;SDS011;5101;49.038;8.710;2022-12-07T04:58:09;12.13;;;8.80;;
10122;SDS011;5101;49.038;8.710;2022-12-07T05:00:35;10.67;;;8.87;;
10122;SDS011;5101;49.038;8.710;2022-12-07T05:03:01;11.87;;;8.40;;
10122;SDS011;5101;49.038;8.710;2022-12-07T05:05:26;12.30;;;9.20;;
10122;SDS011;5101;49.038;8.710;2022-12-07T05:07:53;10.37;;;8.87;;
10122;SDS011;5101;49.038;8.710;2022-12-07T05:10:18;10.83;;;9.03;;
10122;SDS011;5101;49.038;8.710;2022-12-07T05:12:44;9.70;;;8.23;;
10122;SDS011;5101;49.038;8.710;2022-12-07T05:15:10;10.10;;;8.43;;
10122;SDS011;5101;49.038;8.710;2022-12-07T05:17:36;10.57;;;9.07;;
10122;SDS011;5101;49.038;8.710;2022-12-07T05:20:02;12.67;;;9.13;;
10122;SDS011;5101;49.038;8.710;2022-12-07T05:22:27;10.50;;;8.60;;
10122;SDS011;5101;49.038;8.710;2022-12-07T05:24:54;10.27;;;9.00;;
10122;SDS011;5101;49.038;8.710;2022-12-07T05:27:20;9.17;;;7.90;;
10122;SDS011;5101;49.038;8.710;2022-12-07T05:29:45;11.20;;;8.83;;
10122;SDS011;5101;49.038;8.710;2022-12-07T05:32:11;10.67;;;8.60;;
10122;SDS011;5101;49.038;8.710;2022-12-07T05:34:36;12.77;;;8.73;;
10122;SDS011;5101;49.038;8.710;2022-12-07T05:37:02;8.80;;;7.13;;
10122;SDS011;5101;49.038;8.710;2022-12-07T05:39:28;9.83;;;8.63;;
10122;SDS011;5101;49.038;8.710;2022-12-07T05:41:53;11.43;;;7.90;;
10122;SDS011;5101;49.038;8.710;2022-12-07T05:44:37;9.83;;;7.87;;
10122;SDS011;5101;49.038;8.710;2022-12-07T05:47:06;10.47;;;7.73;;
10122;SDS011;5101;49.038;8.710;2022-12-07T05:49:32;9.10;;;8.07;;
10122;SDS011;5101;49.038;8.710;2022-12-07T05:51:58;8.60;;;7.67;;
10122;SDS011;5101;49.038;8.710;2022-12-07T05:54:23;9.67;;;8.10;;
10122;SDS011;5101;49.038;8.710;2022-12-07T05:56:49;9.87;;;8.50;;
10122;SDS011;5101;49.038;8.710;2022-12-07T05:59:15;9.07;;;8.10;;
10122;SDS011;5101;49.038;8.710;2022-12-07T06:01:47;9.67;;;7.40;;
10122;SDS011;5101;49.038;8.710;2022-12-07T06:04:13;9.53;;;7.53;;
10122;SDS011;5101;49.038;8.710;2022-12-07T06:06:39;10.17;;;7.57;;
10122;SDS011;5101;49.038;8.710;2022-12-07T06:09:04;8.37;;;7.47;;
10122;SDS011;5101;49.038;8.710;2022-12-07T06:11:30;8.83;;;7.43;;
10122;SDS011;5101;49.038;8.710;2022-12-07T06:14:14;8.87;;;7.37;;
10122;SDS011;5101;49.038;8.710;2022-12-07T06:16:39;7.80;;;7.00;;
10122;SDS011;5101;49.038;8.710;2022-12-07T06:19:05;8.90;;;7.30;;
10122;SDS011;5101;49.038;8.710;2022-12-07T06:21:31;13.47;;;7.50;;
10122;SDS011;5101;49.038;8.710;2022-12-07T06:23:56;16.70;;;7.83;;
10122;SDS011;5101;49.038;8.710;2022-12-07T06:26:22;10.77;;;7.43;;
10122;SDS011;5101;49.038;8.710;2022-12-07T06:28:47;16.00;;;8.27;;
10122;SDS011;5101;49.038;8.710;2022-12-07T06:31:13;7.93;;;6.87;;
10122;SDS011;5101;49.038;8.710;2022-12-07T06:33:39;15.93;;;7.87;;
10122;SDS011;5101;49.038;8.710;2022-12-07T06:36:04;10.83;;;7.17;;
10122;SDS011;5101;49.038;8.710;2022-12-07T06:38:30;16.53;;;7.57;;
10122;SDS011;5101;49.038;8.710;2022-12-07T06:40:55;12.63;;;8.20;;
10122;SDS011;5101;49.038;8.710;2022-12-07T06:43:21;12.73;;;7.40;;
10122;SDS011;5101;49.038;8.710;2022-12-07T06:45:46;11.13;;;7.13;;
10122;SDS011;5101;49.038;8.710;2022-12-07T06:48:12;12.73;;;8.27;;
10122;SDS011;5101;49.038;8.710;2022-12-07T06:50:37;11.73;;;8.97;;
10122;SDS011;5101;49.038;8.710;2022-12-07T06:53:03;12.50;;;8.83;;
10122;SDS011;5101;49.038;8.710;2022-12-07T06:55:28;9.47;;;7.70;;
10122;SDS011;5101;49.038;8.710;2022-12-07T06:57:54;8.77;;;6.80;;
10122;SDS011;5101;49.038;8.710;2022-12-07T07:00:19;9.47;;;6.03;;
10122;SDS011;5101;49.038;8.710;2022-12-07T07:02:45;7.50;;;6.60;;
10122;SDS011;5101;49.038;8.710;2022-12-07T07:05:10;11.53;;;7.77;;
10122;SDS011;5101;49.038;8.710;2022-12-07T07:07:36;10.40;;;6.87;;
10122;SDS011;5101;49.038;8.710;2022-12-07T07:10:02;8.27;;;6.47;;
10122;SDS011;5101;49.038;8.710;2022-12-07T07:12:27;11.43;;;7.03;;
10122;SDS011;5101;49.038;8.710;2022-12-07T07:14:53;10.87;;;7.77;;
10122;SDS011;5101;49.038;8.710;2022-12-07T07:17:18;10.13;;;7.60;;
10122;SDS011;5101;49.038;8.710;2022-12-07T07:19:44;16.23;;;7.63;;
10122;SDS011;5101;49.038;8.710;2022-12-07T07:22:09;13.83;;;7.83;;
10122;SDS011;5101;49.038;8.710;2022-12-07T07:24:35;16.70;;;8.27;;
10122;SDS011;5101;49.038;8.710;2022-12-07T07:27:00;10.13;;;6.80;;
10122;SDS011;5101;49.038;8.710;2022-12-07T07:29:26;13.90;;;7.87;;
10122;SDS011;5101;49.038;8.710;2022-12-07T07:31:51;12.57;;;6.73;;
10122;SDS011;5101;49.038;8.710;2022-12-07T07:34:17;17.90;;;7.63;;
10122;SDS011;5101;49.038;8.710;2022-12-07T07:36:42;15.80;;;7.30;;
10122;SDS011;5101;49.038;8.710;2022-12-07T07:39:09;8.40;;;6.60;;
10122;SDS011;5101;49.038;8.710;2022-12-07T07:41:35;9.47;;;6.53;;
10122;SDS011;5101;49.038;8.710;2022-12-07T07:44:00;11.60;;;6.60;;
10122;SDS011;5101;49.038;8.710;2022-12-07T07:46:26;12.17;;;7.30;;
10122;SDS011;5101;49.038;8.710;2022-12-07T07:48:51;15.70;;;7.37;;
10122;SDS011;5101;49.038;8.710;2022-12-07T07:51:16;22.57;;;9.03;;
10122;SDS011;5101;49.038;8.710;2022-12-07T07:53:42;15.77;;;7.53;;
10122;SDS011;5101;49.038;8.710;2022-12-07T07:56:07;11.47;;;6.53;;
10122;SDS011;5101;49.038;8.710;2022-12-07T07:58:33;8.30;;;6.03;;
10122;SDS011;5101;49.038;8.710;2022-12-07T08:01:03;9.03;;;6.10;;
10122;SDS011;5101;49.038;8.710;2022-12-07T08:03:30;8.33;;;5.70;;
10122;SDS011;5101;49.038;8.710;2022-12-07T08:05:55;6.70;;;5.90;;
10122;SDS011;5101;49.038;8.710;2022-12-07T08:08:21;8.60;;;5.23;;
10122;SDS011;5101;49.038;8.710;2022-12-07T08:10:46;7.60;;;5.33;;
10122;SDS011;5101;49.038;8.710;2022-12-07T08:13:12;8.30;;;5.00;;
10122;SDS011;5101;49.038;8.710;2022-12-07T08:15:40;7.27;;;5.47;;
10122;SDS011;5101;49.038;8.710;2022-12-07T08:18:07;7.90;;;5.70;;
10122;SDS011;5101;49.038;8.710;2022-12-07T08:20:33;6.77;;;5.87;;
10122;SDS011;5101;49.038;8.710;2022-12-07T08:23:00;6.60;;;5.27;;
10122;SDS011;5101;49.038;8.710;2022-12-07T08:25:26;6.00;;;5.17;;
10122;SDS011;5101;49.038;8.710;2022-12-07T08:27:53;9.00;;;5.93;;
10122;SDS011;5101;49.038;8.710;2022-12-07T08:30:18;7.97;;;5.90;;
10122;SDS011;5101;49.038;8.710;2022-12-07T08:32:45;7.90;;;6.03;;
10122;SDS011;5101;49.038;8.710;2022-12-07T08:35:12;6.73;;;5.30;;
10122;SDS011;5101;49.038;8.710;2022-12-07T08:37:37;6.20;;;5.60;;
10122;SDS011;5101;49.038;8.710;2022-12-07T08:40:04;6.07;;;5.47;;
10122;SDS011;5101;49.038;8.710;2022-12-07T08:42:31;6.07;;;5.27;;
10122;SDS011;5101;49.038;8.710;2022-12-07T08:45:05;7.20;;;5.77;;
10122;SDS011;5101;49.038;8.710;2022-12-07T08:47:31;8.87;;;5.37;;
10122;SDS011;5101;49.038;8.710;2022-12-07T08:49:57;10.70;;;5.87;;
10122;SDS011;5101;49.038;8.710;2022-12-07T08:52:28;6.77;;;4.93;;
10122;SDS011;5101;49.038;8.710;2022-12-07T08:54:56;8.70;;;5.70;;
10122;SDS011;5101;49.038;8.710;2022-12-07T08:57:23;7.77;;;5.30;;
10122;SDS011;5101;49.038;8.710;2022-12-07T08:59:49;10.30;;;5.37;;
10122;SDS011;5101;49.038;8.710;2022-12-07T09:02:15;7.63;;;5.10;;
10122;SDS011;5101;49.038;8.710;2022-12-07T09:04:40;8.20;;;5.13;;
10122;SDS011;5101;49.038;8.710;2022-12-07T09:07:06;7.17;;;4.87;;
10122;SDS011;5101;49.038;8.710;2022-12-07T09:09:32;8.40;;;5.10;;
10122;SDS011;5101;49.038;8.710;2022-12-07T09:11:57;12.93;;;6.00;;
10122;SDS011;5101;49.038;8.710;2022-12-07T09:14:23;7.80;;;5.00;;
10122;SDS011;5101;49.038;8.710;2022-12-07T09:16:48;12.33;;;5.10;;
10122;SDS011;5101;49.038;8.710;2022-12-07T09:19:14;8.00;;;5.63;;
10122;SDS011;5101;49.038;8.710;2022-12-07T09:21:39;7.33;;;5.13;;
10122;SDS011;5101;49.038;8.710;2022-12-07T09:24:05;6.57;;;5.20;;
10122;SDS011;5101;49.038;8.710;2022-12-07T09:26:31;6.33;;;5.33;;
10122;SDS011;5101;49.038;8.710;2022-12-07T09:28:56;6.03;;;5.30;;
10122;SDS011;5101;49.038;8.710;2022-12-07T09:31:22;8.00;;;5.63;;
10122;SDS011;5101;49.038;8.710;2022-12-07T09:33:52;6.77;;;5.17;;
10122;SDS011;5101;49.038;8.710;2022-12-07T09:36:21;5.73;;;4.97;;
10122;SDS011;5101;49.038;8.710;2022-12-07T09:38:47;6.47;;;5.70;;
10122;SDS011;5101;49.038;8.710;2022-12-07T09:41:13;7.10;;;6.07;;
10122;SDS011;5101;49.038;8.710;2022-12-07T09:43:38;8.20;;;6.00;;
10122;SDS011;5101;49.038;8.710;2022-12-07T09:46:05;6.03;;;5.13;;
10122;SDS011;5101;49.038;8.710;2022-12-07T09:48:34;6.33;;;5.17;;
10122;SDS011;5101;49.038;8.710;2022-12-07T09:51:02;6.23;;;5.43;;
10122;SDS011;5101;49.038;8.710;2022-12-07T09:53:37;7.60;;;5.60;;
10122;SDS011;5101;49.038;8.710;2022-12-07T09:56:03;6.33;;;5.73;;
10122;SDS011;5101;49.038;8.710;2022-12-07T09:58:30;6.40;;;5.37;;
10122;SDS011;5101;49.038;8.710;2022-12-07T10:00:58;8.37;;;5.37;;
10122;SDS011;5101;49.038;8.710;2022-12-07T10:03:30;9.27;;;5.97;;
10122;SDS011;5101;49.038;8.710;2022-12-07T10:05:55;7.47;;;5.20;;
10122;SDS011;5101;49.038;8.710;2022-12-07T10:08:22;8.20;;;5.80;;
10122;SDS011;5101;49.038;8.710;2022-12-07T10:10:50;8.20;;;5.80;;
10122;SDS011;5101;49.038;8.710;2022-12-07T10:13:21;6.47;;;5.30;;
10122;SDS011;5101;49.038;8.710;2022-12-07T10:15:59;5.70;;;5.13;;
10122;SDS011;5101;49.038;8.710;2022-12-07T10:18:26;6.93;;;5.83;;
10122;SDS011;5101;49.038;8.710;2022-12-07T10:21:14;7.50;;;6.03;;
10122;SDS011;5101;49.038;8.710;2022-12-07T10:23:43;7.93;;;5.72;;
10122;SDS011;5101;49.038;8.710;2022-12-07T10:29:16;8.60;;;6.63;;
10122;SDS011;5101;49.038;8.710;2022-12-07T10:31:57;14.40;;;7.27;;
10122;SDS011;5101;49.038;8.710;2022-12-07T10:34:23;7.67;;;6.33;;
10122;SDS011;5101;49.038;8.710;2022-12-07T10:36:52;6.85;;;6.13;;
10122;SDS011;5101;49.038;8.710;2022-12-07T10:39:18;10.38;;;6.78;;
10122;SDS011;5101;49.038;8.710;2022-12-07T10:41:58;11.27;;;6.57;;
10122;SDS011;5101;49.038;8.710;2022-12-07T10:44:27;7.77;;;6.47;;
10122;SDS011;5101;49.038;8.710;2022-12-07T10:52:41;10.25;;;7.10;;
10122;SDS011;5101;49.038;8.710;2022-12-07T10:55:39;8.73;;;6.93;;
10122;SDS011;5101;49.038;8.710;2022-12-07T11:01:34;7.47;;;6.40;;
10122;SDS011;5101;49.038;8.710;2022-12-07T11:07:06;9.18;;;7.75;;
10122;SDS011;5101;49.038;8.710;2022-12-07T11:12:29;11.63;;;7.70;;
10122;SDS011;5101;49.038;8.710;2022-12-07T11:17:43;11.43;;;7.47;;
10122;SDS011;5101;49.038;8.710;2022-12-07T11:23:11;9.10;;;7.10;;
10122;SDS011;5101;49.038;8.710;2022-12-07T11:26:19;8.23;;;6.93;;
10122;SDS011;5101;49.038;8.710;2022-12-07T11:35:08;7.77;;;6.47;;
10122;SDS011;5101;49.038;8.710;2022-12-07T11:37:39;12.10;;;7.50;;
10122;SDS011;5101;49.038;8.710;2022-12-07T11:43:01;10.67;;;7.63;;
10122;SDS011;5101;49.038;8.710;2022-12-07T11:45:40;10.93;;;7.67;;
10122;SDS011;5101;49.038;8.710;2022-12-07T11:48:15;8.23;;;7.10;;
10122;SDS011;5101;49.038;8.710;2022-12-07T11:50:57;8.93;;;7.20;;
10122;SDS011;5101;49.038;8.710;2022-12-07T11:53:33;9.13;;;7.17;;
10122;SDS011;5101;49.038;8.710;2022-12-07T11:56:11;7.50;;;6.70;;
10122;SDS011;5101;49.038;8.710;2022-12-07T12:04:25;8.90;;;7.47;;
10122;SDS011;5101;49.038;8.710;2022-12-07T12:06:30;8.97;;;7.00;;
10122;SDS011;5101;49.038;8.710;2022-12-07T12:09:02;9.37;;;7.97;;
10122;SDS011;5101;49.038;8.710;2022-12-07T12:11:47;9.27;;;7.27;;
10122;SDS011;5101;49.038;8.710;2022-12-07T12:14:26;11.23;;;7.77;;
10122;SDS011;5101;49.038;8.710;2022-12-07T12:22:40;8.47;;;7.50;;
10122;SDS011;5101;49.038;8.710;2022-12-07T12:25:19;8.27;;;6.80;;
10122;SDS011;5101;49.038;8.710;2022-12-07T12:27:48;10.67;;;7.93;;
10122;SDS011;5101;49.038;8.710;2022-12-07T12:30:26;10.90;;;7.50;;
10122;SDS011;5101;49.038;8.710;2022-12-07T12:32:54;8.97;;;7.33;;
10122;SDS011;5101;49.038;8.710;2022-12-07T12:35:37;9.40;;;7.37;;
10122;SDS011;5101;49.038;8.710;2022-12-07T12:40:54;9.63;;;7.27;;
10122;SDS011;5101;49.038;8.710;2022-12-07T12:48:54;17.07;;;8.07;;
10122;SDS011;5101;49.038;8.710;2022-12-07T12:51:39;10.30;;;7.13;;
10122;SDS011;5101;49.038;8.710;2022-12-07T12:54:11;9.47;;;7.40;;
10122;SDS011;5101;49.038;8.710;2022-12-07T12:56:50;10.63;;;8.40;;
10122;SDS011;5101;49.038;8.710;2022-12-07T13:01:46;13.10;;;8.90;;
10122;SDS011;5101;49.038;8.710;2022-12-07T13:04:24;10.40;;;8.10;;
10122;SDS011;5101;49.038;8.710;2022-12-07T13:06:50;10.80;;;7.60;;
10122;SDS011;5101;49.038;8.710;2022-12-07T13:09:34;12.27;;;8.60;;
10122;SDS011;5101;49.038;8.710;2022-12-07T13:12:02;15.40;;;9.00;;
10122;SDS011;5101;49.038;8.710;2022-12-07T13:14:43;10.00;;;7.83;;
10122;SDS011;5101;49.038;8.710;2022-12-07T13:19:56;12.10;;;8.40;;
10122;SDS011;5101;49.038;8.710;2022-12-07T13:28:16;11.17;;;8.83;;
10122;SDS011;5101;49.038;8.710;2022-12-07T13:30:49;11.23;;;9.10;;
10122;SDS011;5101;49.038;8.710;2022-12-07T13:33:29;11.40;;;7.97;;
10122;SDS011;5101;49.038;8.710;2022-12-07T13:35:55;13.17;;;8.40;;
10122;SDS011;5101;49.038;8.710;2022-12-07T13:38:27;9.63;;;8.00;;
10122;SDS011;5101;49.038;8.710;2022-12-07T13:41:01;11.37;;;8.50;;
10122;SDS011;5101;49.038;8.710;2022-12-07T13:43:28;11.73;;;9.20;;
10122;SDS011;5101;49.038;8.710;2022-12-07T13:45:57;10.27;;;8.27;;
10122;SDS011;5101;49.038;8.710;2022-12-07T13:48:36;12.13;;;8.63;;
10122;SDS011;5101;49.038;8.710;2022-12-07T13:51:18;11.70;;;9.27;;
10122;SDS011;5101;49.038;8.710;2022-12-07T13:53:50;12.70;;;9.37;;
10122;SDS011;5101;49.038;8.710;2022-12-07T13:56:21;10.73;;;8.30;;
10122;SDS011;5101;49.038;8.710;2022-12-07T13:58:50;9.20;;;7.90;;
10122;SDS011;5101;49.038;8.710;2022-12-07T14:01:16;12.20;;;9.35;;
10122;SDS011;5101;49.038;8.710;2022-12-07T14:03:42;11.45;;;8.95;;
10122;SDS011;5101;49.038;8.710;2022-12-07T14:09:06;14.10;;;9.03;;
10122;SDS011;5101;49.038;8.710;2022-12-07T14:11:42;10.10;;;8.10;;
10122;SDS011;5101;49.038;8.710;2022-12-07T14:14:14;9.53;;;8.43;;
10122;SDS011;5101;49.038;8.710;2022-12-07T14:17:12;11.10;;;9.03;;
10122;SDS011;5101;49.038;8.710;2022-12-07T14:24:45;11.07;;;8.37;;
10122;SDS011;5101;49.038;8.710;2022-12-07T14:27:18;11.57;;;9.10;;
10122;SDS011;5101;49.038;8.710;2022-12-07T14:29:45;12.10;;;9.20;;
10122;SDS011;5101;49.038;8.710;2022-12-07T14:32:19;14.17;;;10.60;;
10122;SDS011;5101;49.038;8.710;2022-12-07T14:37:20;13.63;;;9.97;;
10122;SDS011;5101;49.038;8.710;2022-12-07T14:39:45;13.23;;;10.13;;
10122;SDS011;5101;49.038;8.710;2022-12-07T14:42:11;11.23;;;9.50;;
10122;SDS011;5101;49.038;8.710;2022-12-07T14:44:36;12.77;;;10.07;;
10122;SDS011;5101;49.038;8.710;2022-12-07T14:47:02;14.87;;;10.77;;
10122;SDS011;5101;49.038;8.710;2022-12-07T14:49:27;14.37;;;9.53;;
10122;SDS011;5101;49.038;8.710;2022-12-07T14:51:52;11.13;;;8.67;;
10122;SDS011;5101;49.038;8.710;2022-12-07T14:54:19;12.97;;;9.63;;
10122;SDS011;5101;49.038;8.710;2022-12-07T14:56:46;13.73;;;9.33;;
10122;SDS011;5101;49.038;8.710;2022-12-07T14:59:16;11.43;;;9.30;;
10122;SDS011;5101;49.038;8.710;2022-12-07T15:01:42;13.50;;;9.13;;
10122;SDS011;5101;49.038;8.710;2022-12-07T15:04:07;33.07;;;25.50;;
10122;SDS011;5101;49.038;8.710;2022-12-07T15:06:33;12.40;;;8.63;;
10122;SDS011;5101;49.038;8.710;2022-12-07T15:08:58;11.27;;;8.90;;
10122;SDS011;5101;49.038;8.710;2022-12-07T15:11:24;9.80;;;8.53;;
10122;SDS011;5101;49.038;8.710;2022-12-07T15:13:49;11.23;;;8.90;;
10122;SDS011;5101;49.038;8.710;2022-12-07T15:16:33;12.77;;;9.80;;
10122;SDS011;5101;49.038;8.710;2022-12-07T15:19:04;11.27;;;10.07;;
10122;SDS011;5101;49.038;8.710;2022-12-07T15:21:30;13.47;;;9.87;;
10122;SDS011;5101;49.038;8.710;2022-12-07T15:23:56;11.80;;;9.13;;
10122;SDS011;5101;49.038;8.710;2022-12-07T15:26:21;10.27;;;8.33;;
10122;SDS011;5101;49.038;8.710;2022-12-07T15:28:47;11.90;;;9.83;;
10122;SDS011;5101;49.038;8.710;2022-12-07T15:31:13;11.60;;;8.17;;
10122;SDS011;5101;49.038;8.710;2022-12-07T15:33:39;13.63;;;11.47;;
10122;SDS011;5101;49.038;8.710;2022-12-07T15:36:05;11.40;;;8.27;;
10122;SDS011;5101;49.038;8.710;2022-12-07T15:38:31;14.43;;;8.13;;
10122;SDS011;5101;49.038;8.710;2022-12-07T15:40:57;14.33;;;9.80;;
10122;SDS011;5101;49.038;8.710;2022-12-07T15:43:23;16.70;;;9.20;;
10122;SDS011;5101;49.038;8.710;2022-12-07T15:46:07;10.43;;;8.57;;
10122;SDS011;5101;49.038;8.710;2022-12-07T15:48:32;10.20;;;8.87;;
10122;SDS011;5101;49.038;8.710;2022-12-07T15:51:02;10.43;;;9.00;;
10122;SDS011;5101;49.038;8.710;2022-12-07T15:53:29;11.80;;;8.70;;
10122;SDS011;5101;49.038;8.710;2022-12-07T15:55:54;12.13;;;9.03;;
10122;SDS011;5101;49.038;8.710;2022-12-07T15:58:19;12.13;;;8.87;;
10122;SDS011;5101;49.038;8.710;2022-12-07T16:00:45;14.87;;;13.10;;
10122;SDS011;5101;49.038;8.710;2022-12-07T16:03:11;17.47;;;15.57;;
10122;SDS011;5101;49.038;8.710;2022-12-07T16:05:37;9.63;;;8.30;;
10122;SDS011;5101;49.038;8.710;2022-12-07T16:08:02;11.47;;;9.43;;
10122;SDS011;5101;49.038;8.710;2022-12-07T16:10:28;13.53;;;8.93;;
10122;SDS011;5101;49.038;8.710;2022-12-07T16:12:54;12.33;;;8.67;;
10122;SDS011;5101;49.038;8.710;2022-12-07T16:15:19;9.00;;;8.07;;
10122;SDS011;5101;49.038;8.710;2022-12-07T16:17:44;10.77;;;8.57;;
10122;SDS011;5101;49.038;8.710;2022-12-07T16:20:10;9.87;;;8.43;;
10122;SDS011;5101;49.038;8.710;2022-12-07T16:22:35;10.80;;;9.30;;
10122;SDS011;5101;49.038;8.710;2022-12-07T16:25:01;11.27;;;8.73;;
10122;SDS011;5101;49.038;8.710;2022-12-07T16:27:26;10.03;;;8.83;;
10122;SDS011;5101;49.038;8.710;2022-12-07T16:29:52;10.50;;;9.40;;
10122;SDS011;5101;49.038;8.710;2022-12-07T16:32:17;11.10;;;8.90;;
10122;SDS011;5101;49.038;8.710;2022-12-07T16:34:43;13.40;;;9.77;;
10122;SDS011;5101;49.038;8.710;2022-12-07T16:37:08;12.67;;;9.67;;
10122;SDS011;5101;49.038;8.710;2022-12-07T16:39:34;10.83;;;8.93;;
10122;SDS011;5101;49.038;8.710;2022-12-07T16:42:00;10.77;;;9.03;;
10122;SDS011;5101;49.038;8.710;2022-12-07T16:44:25;11.47;;;8.77;;
10122;SDS011;5101;49.038;8.710;2022-12-07T16:46:51;10.47;;;9.17;;
10122;SDS011;5101;49.038;8.710;2022-12-07T16:49:16;11.33;;;9.30;;
10122;SDS011;5101;49.038;8.710;2022-12-07T16:51:43;10.73;;;9.57;;